Time;durP1;ratioP1;P1;durP2;ratioP2;P2;SDS_P1;SDS_P2;PMS_P1;PMS_P2;Temp;Humidity;BMP_temperature;BMP_pressure;BME280_temperature;BME280_humidity;BME280_pressure;Samples;Min_cycle;Max_cycle;Signal;HPM_P1;HPM_P2
2023/07/05 00:01:31;;;;;;;0.70;0.70;;;14.40;99.90;;;;;;5052774;28;19932;-62
2023/07/05 00:03:57;;;;;;;;;;;14.00;99.90;;;;;;5052787;28;20053;-63
2023/07/05 00:06:22;;;;;;;0.45;0.45;;;14.10;99.90;;;;;;5034873;28;19931;-64
2023/07/05 00:08:48;;;;;;;;;;;14.50;99.90;;;;;;5052732;28;20075;-63
2023/07/05 00:11:14;;;;;;;4.38;0.43;;;14.40;99.90;;;;;;5035478;28;19928;-62
2023/07/05 00:13:40;;;;;;;;;;;14.50;99.90;;;;;;5053414;28;20052;-69
2023/07/05 00:16:08;;;;;;;0.20;0.20;;;13.60;99.90;;;;;;5052946;28;19921;-63
2023/07/05 00:18:36;;;;;;;0.45;0.45;;;13.70;99.90;;;;;;5052647;28;20465;-64
2023/07/05 00:21:04;;;;;;;0.90;0.60;;;13.70;99.90;;;;;;5052644;28;20504;-63
2023/07/05 00:23:32;;;;;;;0.60;0.43;;;14.60;99.90;;;;;;5052626;28;20044;-62
2023/07/05 00:25:57;;;;;;;0.22;0.22;;;13.70;99.90;;;;;;5052656;28;20063;-62
2023/07/05 00:28:23;;;;;;;0.30;0.30;;;13.80;99.90;;;;;;5052757;28;20544;-62
2023/07/05 00:30:49;;;;;;;0.38;0.38;;;14.40;99.90;;;;;;5052427;28;20059;-62
2023/07/05 00:33:15;;;;;;;;;;;13.70;99.90;;;;;;5034773;28;20045;-63
2023/07/05 00:35:52;;;;;;;0.90;0.90;;;14.40;99.90;;;;;;5034293;28;19928;-62
2023/07/05 00:38:19;;;;;;;0.20;0.20;;;14.50;99.90;;;;;;5052532;28;20095;-62
2023/07/05 00:40:45;;;;;;;2.85;0.50;;;13.90;99.90;;;;;;5052485;28;20048;-62
2023/07/05 00:43:13;;;;;;;3.25;0.63;;;14.20;99.90;;;;;;5052154;28;20052;-62
2023/07/05 00:45:44;;;;;;;0.88;0.60;;;13.40;99.90;;;;;;5052109;28;20117;-62
2023/07/05 00:48:14;;;;;;;0.40;0.40;;;14.50;99.90;;;;;;5052050;28;20053;-64
2023/07/05 00:50:42;;;;;;;0.75;0.40;;;14.70;99.90;;;;;;5051752;28;20512;-65
2023/07/05 00:53:09;;;;;;;2.63;1.98;;;13.70;99.90;;;;;;5052031;28;20489;-63
2023/07/05 00:55:37;;;;;;;0.65;0.65;;;14.90;99.90;;;;;;5052034;28;20432;-62
2023/07/05 00:58:04;;;;;;;0.30;0.30;;;14.60;99.90;;;;;;5051966;28;20095;-61
2023/07/05 01:00:30;;;;;;;0.57;0.57;;;14.70;99.90;;;;;;5052395;28;20091;-64
2023/07/05 01:03:00;;;;;;;0.50;0.50;;;14.30;99.90;;;;;;5051625;28;20057;-62
2023/07/05 01:05:27;;;;;;;0.82;0.63;;;13.50;99.90;;;;;;5051161;28;20417;-63
2023/07/05 01:07:53;;;;;;;1.20;1.10;;;13.80;99.90;;;;;;5051772;28;20040;-63
2023/07/05 01:10:25;;;;;;;0.82;0.82;;;14.80;99.90;;;;;;5051670;28;20044;-64
2023/07/05 01:13:21;;;;;;;0.60;0.60;;;13.70;99.90;;;;;;5051870;28;20052;-62
2023/07/05 01:15:53;;;;;;;0.40;0.40;;;14.40;99.90;;;;;;5051814;28;20057;-63
2023/07/05 01:18:49;;;;;;;0.30;0.30;;;14.70;99.90;;;;;;5051665;28;20045;-62
2023/07/05 01:21:38;;;;;;;0.22;0.22;;;14.70;99.90;;;;;;5048349;28;20110;-62
2023/07/05 01:24:13;;;;;;;0.88;0.88;;;13.80;99.90;;;;;;5051512;28;20378;-62
2023/07/05 01:27:03;;;;;;;0.85;0.85;;;13.60;99.90;;;;;;5051485;28;20497;-62
2023/07/05 01:29:32;;;;;;;0.95;0.95;;;14.00;99.90;;;;;;5051105;28;20417;-65
2023/07/05 01:32:22;;;;;;;4.32;1.08;;;14.60;99.90;;;;;;5051152;28;20053;-62
2023/07/05 01:35:05;;;;;;;0.63;0.63;;;13.90;99.90;;;;;;5051423;28;20155;-63
2023/07/05 01:37:39;;;;;;;0.40;0.40;;;13.80;99.90;;;;;;5051200;28;20144;-64
2023/07/05 01:40:20;;;;;;;0.43;0.43;;;14.90;99.90;;;;;;5051228;28;20136;-62
2023/07/05 01:42:48;;;;;;;0.40;0.40;;;13.70;99.90;;;;;;5051286;28;20052;-63
2023/07/05 01:45:15;;;;;;;0.95;0.82;;;14.00;99.90;;;;;;5051197;28;20041;-63
2023/07/05 01:48:04;;;;;;;0.30;0.30;;;14.50;99.90;;;;;;5033294;28;20833;-63
2023/07/05 01:50:36;;;;;;;0.30;0.30;;;14.50;99.90;;;;;;5051240;28;20063;-63
2023/07/05 01:53:26;;;;;;;0.30;0.30;;;14.80;99.90;;;;;;5033246;28;20048;-63
2023/07/05 01:56:00;;;;;;;1.13;0.93;;;14.60;99.90;;;;;;5051010;28;20500;-63
2023/07/05 01:58:30;;;;;;;0.40;0.40;;;14.70;99.90;;;;;;5051049;28;20047;-63
2023/07/05 02:00:59;;;;;;;0.40;0.40;;;13.40;99.90;;;;;;5051045;28;20144;-67
2023/07/05 02:03:26;;;;;;;0.90;0.90;;;14.70;99.90;;;;;;5050942;28;20160;-64
2023/07/05 02:05:53;;;;;;;1.85;1.40;;;14.10;99.90;;;;;;5050580;28;20119;-70
2023/07/05 02:08:24;;;;;;;0.45;0.45;;;13.60;99.90;;;;;;5051028;28;20057;-64
2023/07/05 02:10:50;;;;;;;0.40;0.40;;;14.50;99.90;;;;;;5050887;28;20114;-64
2023/07/05 02:13:17;;;;;;;0.40;0.40;;;15.10;99.90;;;;;;5050974;28;20048;-63
2023/07/05 02:15:43;;;;;;;0.68;0.68;;;14.10;99.90;;;;;;5050457;28;20055;-63
2023/07/05 02:18:08;;;;;;;;;;;14.20;99.90;;;;;;5033524;28;20401;-61
2023/07/05 02:20:35;;;;;;;0.60;0.60;;;14.80;99.90;;;;;;5050832;28;19920;-63
2023/07/05 02:23:01;;;;;;;1.67;1.27;;;14.60;99.90;;;;;;5032903;28;20167;-63
2023/07/05 02:25:27;;;;;;;1.08;1.08;;;14.80;99.90;;;;;;5050538;28;20136;-61
2023/07/05 02:27:53;;;;;;;0.73;0.65;;;14.10;99.90;;;;;;5050579;28;20592;-63
2023/07/05 02:30:20;;;;;;;;;;;14.80;99.90;;;;;;5050751;28;20055;-62
2023/07/05 02:32:45;;;;;;;0.70;0.70;;;14.60;99.90;;;;;;5053518;28;20003;-61
2023/07/05 02:35:11;;;;;;;0.45;0.45;;;14.50;99.90;;;;;;5054828;28;20148;-62
2023/07/05 02:37:37;;;;;;;;;;;14.60;99.90;;;;;;5037141;28;20111;-64
2023/07/05 02:40:03;;;;;;;0.47;0.40;;;14.10;99.90;;;;;;5054573;28;20007;-62
2023/07/05 02:42:29;;;;;;;0.63;0.63;;;13.30;99.90;;;;;;5054607;28;20102;-61
2023/07/05 02:44:55;;;;;;;0.63;0.55;;;13.60;99.90;;;;;;5054351;28;20432;-61
2023/07/05 02:47:21;;;;;;;1.58;0.85;;;13.50;99.90;;;;;;5054585;28;20056;-61
2023/07/05 02:49:47;;;;;;;1.80;1.08;;;13.50;99.90;;;;;;5054628;28;20092;-62
2023/07/05 02:52:13;;;;;;;0.95;0.85;;;14.50;99.90;;;;;;5054297;28;20095;-62
2023/07/05 02:54:39;;;;;;;;;;;13.30;99.90;;;;;;5055163;28;20044;-62
2023/07/05 02:57:04;;;;;;;0.52;0.52;;;13.60;99.90;;;;;;5054441;28;19924;-62
2023/07/05 02:59:30;;;;;;;;;;;14.50;99.90;;;;;;5054517;28;20049;-61
2023/07/05 03:01:56;;;;;;;2.30;1.05;;;13.40;99.90;;;;;;5054301;28;19962;-61
2023/07/05 03:04:22;;;;;;;0.40;0.40;;;14.40;99.90;;;;;;5054005;28;20202;-60
2023/07/05 03:06:47;;;;;;;;;;;15.00;99.90;;;;;;5054795;28;20069;-61
2023/07/05 03:09:13;;;;;;;1.65;0.95;;;14.80;99.90;;;;;;5054191;28;20023;-63
2023/07/05 03:11:38;;;;;;;;;;;14.90;99.90;;;;;;5054799;28;20056;-61
2023/07/05 03:14:04;;;;;;;0.63;0.63;;;13.60;99.90;;;;;;5054095;28;20272;-61
2023/07/05 03:16:30;;;;;;;1.38;1.27;;;13.40;99.90;;;;;;5054083;28;20049;-61
2023/07/05 03:18:55;;;;;;;;;;;15.00;99.90;;;;;;5054542;28;20110;-64
2023/07/05 03:21:21;;;;;;;0.70;0.63;;;13.50;99.90;;;;;;5054029;28;19927;-60
2023/07/05 03:23:47;;;;;;;1.23;1.13;;;14.50;99.90;;;;;;5054095;28;20040;-60
2023/07/05 03:26:14;;;;;;;1.55;0.88;;;13.30;99.90;;;;;;5053976;28;20052;-61
2023/07/05 03:28:40;;;;;;;0.85;0.68;;;14.70;99.90;;;;;;5036093;28;20060;-61
2023/07/05 03:31:11;;;;;;;;;;;14.20;99.90;;;;;;5054379;28;20053;-60
2023/07/05 03:33:36;;;;;;;0.90;0.90;;;13.60;99.90;;;;;;5053871;28;20296;-65
2023/07/05 03:36:06;;;;;;;0.70;0.70;;;14.10;99.90;;;;;;5053836;28;20044;-62
2023/07/05 03:38:33;;;;;;;1.52;1.30;;;14.80;99.90;;;;;;5053645;28;20049;-61
2023/07/05 03:41:05;;;;;;;0.80;0.80;;;13.40;99.90;;;;;;5053440;28;20520;-62
2023/07/05 03:43:35;;;;;;;0.68;0.68;;;14.70;99.90;;;;;;5034418;28;20055;-62
2023/07/05 03:46:02;;;;;;;0.73;0.60;;;13.70;99.90;;;;;;5053455;28;20493;-61
2023/07/05 03:48:34;;;;;;;0.88;0.88;;;14.00;99.90;;;;;;5053375;28;20501;-64
2023/07/05 03:51:00;;;;;;;0.57;0.57;;;14.60;99.90;;;;;;5053664;28;20060;-60
2023/07/05 03:53:27;;;;;;;0.85;0.85;;;13.20;99.90;;;;;;5053645;28;20048;-60
2023/07/05 03:55:53;;;;;;;1.10;1.00;;;14.50;99.90;;;;;;5053407;28;20044;-60
2023/07/05 03:58:19;;;;;;;0.80;0.80;;;13.50;99.90;;;;;;5035750;28;20088;-60
2023/07/05 04:00:45;;;;;;;0.57;0.57;;;14.90;99.90;;;;;;5053341;28;20055;-62
2023/07/05 04:03:12;;;;;;;0.47;0.47;;;14.90;99.90;;;;;;5053163;28;20048;-63
2023/07/05 04:05:38;;;;;;;0.70;0.70;;;13.80;99.90;;;;;;5053155;28;20136;-61
2023/07/05 04:08:04;;;;;;;0.60;0.60;;;13.40;99.90;;;;;;5053115;28;20064;-61
2023/07/05 04:10:29;;;;;;;;;;;13.50;99.90;;;;;;5053369;28;20037;-61
2023/07/05 04:12:55;;;;;;;0.65;0.65;;;14.60;99.90;;;;;;5053141;28;19927;-61
2023/07/05 04:15:21;;;;;;;1.95;0.80;;;14.60;99.90;;;;;;5053100;28;20374;-61
2023/07/05 04:17:46;;;;;;;;;;;15.00;99.90;;;;;;5053423;28;20107;-60
2023/07/05 04:20:12;;;;;;;0.73;0.73;;;15.00;99.90;;;;;;5052874;28;19932;-61
2023/07/05 04:22:39;;;;;;;;;;;14.50;99.90;;;;;;5035528;28;20063;-63
2023/07/05 04:25:05;;;;;;;0.68;0.68;;;15.30;99.90;;;;;;5052580;28;19925;-64
2023/07/05 04:27:31;;;;;;;0.80;0.80;;;13.60;99.90;;;;;;5052550;28;20556;-62
2023/07/05 04:29:57;;;;;;;;;;;14.50;99.90;;;;;;5052973;28;20481;-62
2023/07/05 04:32:22;;;;;;;1.13;1.05;;;15.40;99.90;;;;;;5052733;28;19929;-64
2023/07/05 04:34:48;;;;;;;;;;;13.60;99.90;;;;;;5053016;28;20137;-64
2023/07/05 04:37:14;;;;;;;2.67;0.57;;;15.20;99.90;;;;;;5052488;28;20431;-62
2023/07/05 04:39:39;;;;;;;;;;;13.70;99.90;;;;;;5052777;28;20096;-60
2023/07/05 04:42:05;;;;;;;0.40;0.40;;;13.80;99.90;;;;;;5052616;28;19925;-61
2023/07/05 04:44:31;;;;;;;1.30;0.73;;;15.60;99.90;;;;;;5052443;28;20049;-61
2023/07/05 04:46:57;;;;;;;0.68;0.68;;;15.10;99.90;;;;;;5052461;28;20045;-61
2023/07/05 04:49:22;;;;;;;;;;;13.90;99.90;;;;;;5053008;28;20090;-61
2023/07/05 04:51:48;;;;;;;0.52;0.52;;;14.10;99.90;;;;;;5034437;28;20237;-61
2023/07/05 04:54:14;;;;;;;7.03;1.33;;;14.10;99.90;;;;;;5051849;28;20094;-64
2023/07/05 04:56:40;;;;;;;0.70;0.70;;;16.00;99.90;;;;;;5052254;28;20190;-63
2023/07/05 04:59:06;;;;;;;0.50;0.50;;;14.00;99.90;;;;;;5068886;28;20128;-61
2023/07/05 05:01:32;;;;;;;;;;;14.10;99.90;;;;;;5061181;28;20049;-63
2023/07/05 05:03:57;;;;;;;0.60;0.60;;;13.90;99.90;;;;;;5051961;28;19921;-62
2023/07/05 05:06:23;;;;;;;;;;;15.60;99.90;;;;;;5034336;28;20091;-61
2023/07/05 05:08:48;;;;;;;1.10;0.93;;;14.50;99.90;;;;;;5051732;28;19924;-62
2023/07/05 05:11:14;;;;;;;;;;;15.80;99.90;;;;;;5052431;28;20091;-60
2023/07/05 05:13:40;;;;;;;0.85;0.85;;;13.70;99.90;;;;;;5051905;28;19925;-64
2023/07/05 05:16:06;;;;;;;1.45;0.68;;;15.10;99.90;;;;;;5051863;28;20052;-61
2023/07/05 05:18:34;;;;;;;0.80;0.80;;;13.80;99.90;;;;;;5051731;28;20052;-61
2023/07/05 05:21:00;;;;;;;0.70;0.70;;;15.60;99.90;;;;;;5040348;28;20379;-61
2023/07/05 05:23:26;;;;;;;0.40;0.40;;;15.70;99.90;;;;;;5033536;28;20469;-62
2023/07/05 05:25:52;;;;;;;1.77;1.00;;;15.40;99.90;;;;;;5051365;28;20052;-59
2023/07/05 05:28:18;;;;;;;5.80;0.82;;;14.30;99.90;;;;;;5050704;28;20115;-61
2023/07/05 05:30:45;;;;;;;0.50;0.50;;;15.00;99.90;;;;;;5033457;28;20110;-61
2023/07/05 05:33:15;;;;;;;0.47;0.47;;;14.20;99.90;;;;;;5051033;28;20642;-60
2023/07/05 05:35:48;;;;;;;0.43;0.43;;;14.40;99.90;;;;;;5050281;28;20122;-63
2023/07/05 05:38:16;;;;;;;0.68;0.65;;;15.10;99.90;;;;;;5050979;28;20070;-64
2023/07/05 05:40:42;;;;;;;0.40;0.40;;;14.90;99.90;;;;;;5051105;28;20067;-60
2023/07/05 05:43:08;;;;;;;1.08;0.85;;;14.70;99.90;;;;;;5050876;28;20485;-59
2023/07/05 05:45:33;;;;;;;;;;;14.50;99.90;;;;;;5051201;28;20044;-61
2023/07/05 05:47:59;;;;;;;0.40;0.40;;;15.30;99.90;;;;;;5050988;28;19946;-63
2023/07/05 05:50:25;;;;;;;;;;;14.10;99.90;;;;;;5050290;28;20417;-65
2023/07/05 05:52:51;;;;;;;1.55;1.13;;;14.90;99.90;;;;;;5050682;28;19947;-59
2023/07/05 05:55:16;;;;;;;;;;;14.70;99.90;;;;;;5051212;28;20047;-60
2023/07/05 05:57:42;;;;;;;3.38;0.85;;;15.30;99.90;;;;;;5050324;28;19925;-62
2023/07/05 06:00:09;;;;;;;0.30;0.30;;;15.30;99.90;;;;;;5050609;28;20128;-61
2023/07/05 06:02:36;;;;;;;1.33;0.90;;;15.10;99.90;;;;;;5050765;28;20055;-63
2023/07/05 06:05:03;;;;;;;0.17;0.17;;;14.70;99.90;;;;;;5031551;28;20466;-65
2023/07/05 06:07:29;;;;;;;0.30;0.30;;;14.20;99.90;;;;;;5050085;28;20088;-60
2023/07/05 06:09:55;;;;;;;0.30;0.30;;;14.00;99.90;;;;;;5050559;28;20496;-61
2023/07/05 06:12:21;;;;;;;;;;;14.40;99.90;;;;;;5050677;28;20132;-65
2023/07/05 06:14:46;;;;;;;0.63;0.60;;;15.00;99.90;;;;;;5050544;28;19920;-62
2023/07/05 06:17:12;;;;;;;;;;;14.20;99.90;;;;;;5050813;28;20045;-62
2023/07/05 06:19:38;;;;;;;2.47;0.60;;;14.30;99.90;;;;;;5049638;28;20284;-60
2023/07/05 06:22:04;;;;;;;0.43;0.43;;;14.50;99.90;;;;;;5050125;28;20179;-62
2023/07/05 06:24:31;;;;;;;;;;;14.90;99.90;;;;;;5054482;28;20056;-60
2023/07/05 06:26:57;;;;;;;;;;;14.50;99.90;;;;;;5053420;28;20399;-62
2023/07/05 06:29:23;;;;;;;0.25;0.25;;;15.80;99.90;;;;;;5049901;28;19920;-61
2023/07/05 06:31:49;;;;;;;0.52;0.52;;;15.30;99.90;;;;;;5047240;28;20056;-61
2023/07/05 06:34:14;;;;;;;;;;;15.50;99.90;;;;;;5050796;28;20078;-64
2023/07/05 06:36:40;;;;;;;0.63;0.57;;;15.20;99.90;;;;;;5050648;28;20242;-64
2023/07/05 06:39:05;;;;;;;;;;;15.40;99.90;;;;;;5051248;28;20045;-61
2023/07/05 06:41:31;;;;;;;0.35;0.35;;;14.50;99.90;;;;;;5050985;28;20395;-61
2023/07/05 06:43:57;;;;;;;;;;;15.40;99.90;;;;;;5051245;28;20041;-60
2023/07/05 06:46:23;;;;;;;0.55;0.50;;;15.30;99.90;;;;;;5050847;28;19925;-61
2023/07/05 06:48:49;;;;;;;;;;;15.30;99.90;;;;;;5050973;28;20041;-62
2023/07/05 06:51:15;;;;;;;0.40;0.40;;;15.50;99.90;;;;;;5050602;28;19931;-63
2023/07/05 06:53:40;;;;;;;;;;;15.80;99.90;;;;;;5051169;28;20568;-65
2023/07/05 06:56:07;;;;;;;0.40;0.40;;;15.40;99.90;;;;;;5032940;28;19920;-63
2023/07/05 06:58:33;;;;;;;0.40;0.40;;;15.80;99.90;;;;;;5050574;28;20045;-61
2023/07/05 07:00:59;;;;;;;;;;;15.20;99.90;;;;;;5033202;28;20102;-64
2023/07/05 07:03:25;;;;;;;0.30;0.30;;;15.40;99.90;;;;;;5050230;28;19924;-62
2023/07/05 07:05:51;;;;;;;;;;;15.30;99.90;;;;;;5050540;28;20063;-62
2023/07/05 07:08:17;;;;;;;0.75;0.45;;;15.50;99.90;;;;;;5050466;28;19921;-62
2023/07/05 07:10:43;;;;;;;;;;;15.10;99.90;;;;;;5050831;28;20064;-63
2023/07/05 07:13:09;;;;;;;0.35;0.35;;;14.80;99.90;;;;;;5050356;28;20494;-63
2023/07/05 07:15:35;;;;;;;;;;;15.10;99.90;;;;;;5050694;28;20068;-64
2023/07/05 07:18:01;;;;;;;0.43;0.43;;;15.20;99.90;;;;;;5051632;28;19924;-62
2023/07/05 07:20:27;;;;;;;0.45;0.43;;;15.00;99.90;;;;;;5054144;28;20146;-63
2023/07/05 07:22:53;;;;;;;;;;;15.90;99.90;;;;;;5054570;28;20049;-63
2023/07/05 07:25:19;;;;;;;0.28;0.28;;;16.10;99.90;;;;;;5053963;28;20375;-63
2023/07/05 07:27:44;;;;;;;;;;;16.10;99.90;;;;;;5054364;28;20045;-62
2023/07/05 07:30:10;;;;;;;0.30;0.30;;;15.80;99.90;;;;;;5053939;28;19947;-61
2023/07/05 07:32:36;;;;;;;;;;;16.80;99.90;;;;;;5054435;28;20045;-62
2023/07/05 07:35:02;;;;;;;0.75;0.47;;;16.40;99.90;;;;;;5053878;28;19931;-64
2023/07/05 07:37:31;;;;;;;0.30;0.30;;;16.40;99.90;;;;;;5053914;28;20060;-65
2023/07/05 07:39:57;;;;;;;0.17;0.17;;;16.10;99.90;;;;;;5053792;28;20041;-62
2023/07/05 07:42:22;;;;;;;;;;;16.00;99.90;;;;;;5054088;28;20095;-62
2023/07/05 07:44:48;;;;;;;0.63;0.60;;;16.30;99.90;;;;;;5053516;28;19932;-64
2023/07/05 07:47:13;;;;;;;;;;;16.20;99.90;;;;;;5053907;28;20045;-64
2023/07/05 07:49:39;;;;;;;0.22;0.22;;;16.00;99.90;;;;;;5053454;28;19925;-62
2023/07/05 07:52:07;;;;;;;;;;;16.10;99.90;;;;;;5053968;28;20404;-63
2023/07/05 07:54:33;;;;;;;0.35;0.35;;;15.30;99.90;;;;;;5035674;28;19978;-62
2023/07/05 07:56:59;;;;;;;1.85;0.45;;;14.70;99.90;;;;;;5053408;28;20576;-60
2023/07/05 07:59:25;;;;;;;;;;;14.60;99.90;;;;;;5053676;28;20087;-60
2023/07/05 08:01:51;;;;;;;0.20;0.20;;;14.10;99.90;;;;;;5053072;28;19925;-61
2023/07/05 08:04:17;;;;;;;0.32;0.32;;;14.50;99.90;;;;;;5053054;28;20456;-61
2023/07/05 08:06:49;;;;;;;0.10;0.10;;;13.70;99.90;;;;;;5053280;28;20053;-63
2023/07/05 08:09:26;;;;;;;0.20;0.20;;;13.80;99.90;;;;;;5053139;28;20059;-64
2023/07/05 08:11:54;;;;;;;0.30;0.30;;;13.30;99.90;;;;;;5053057;28;20405;-62
2023/07/05 08:14:19;;;;;;;0.25;0.25;;;13.70;99.90;;;;;;5052885;28;20052;-63
2023/07/05 08:16:45;;;;;;;;;;;13.30;99.90;;;;;;5053513;28;20052;-63
2023/07/05 08:19:11;;;;;;;0.10;0.10;;;12.80;99.90;;;;;;5052987;28;19928;-65
2023/07/05 08:21:37;;;;;;;;;;;13.60;99.90;;;;;;5053302;28;20048;-63
2023/07/05 08:24:03;;;;;;;0.20;0.20;;;13.00;99.90;;;;;;5034826;28;20367;-62
2023/07/05 08:26:29;;;;;;;0.20;0.20;;;12.70;99.90;;;;;;5034815;28;20161;-61
2023/07/05 08:28:57;;;;;;;0.20;0.20;;;13.00;99.90;;;;;;5052253;28;20132;-61
2023/07/05 08:31:23;;;;;;;0.13;0.13;;;12.40;99.90;;;;;;5052546;28;20115;-63
2023/07/05 08:33:49;;;;;;;0.30;0.30;;;12.70;99.90;;;;;;5052750;28;20064;-62
2023/07/05 08:36:14;;;;;;;;;;;12.20;99.90;;;;;;5052930;28;20049;-62
2023/07/05 08:38:50;;;;;;;0.20;0.20;;;12.20;99.90;;;;;;5052644;28;19921;-61
2023/07/05 08:41:27;;;;;;;0.15;0.15;;;12.00;99.90;;;;;;5052761;28;20045;-60
2023/07/05 08:44:21;;;;;;;0.15;0.15;;;12.20;99.90;;;;;;5052714;28;20124;-61
2023/07/05 08:47:11;;;;;;;0.20;0.20;;;12.40;99.90;;;;;;5052544;28;20057;-66
2023/07/05 08:49:38;;;;;;;0.20;0.20;;;12.50;99.90;;;;;;5035408;28;20067;-65
2023/07/05 08:52:05;;;;;;;0.20;0.20;;;12.40;99.90;;;;;;5052214;28;20447;-61
2023/07/05 08:54:33;;;;;;;0.20;0.20;;;11.60;99.90;;;;;;5052281;28;20095;-62
2023/07/05 08:57:22;;;;;;;1.33;0.40;;;12.60;99.90;;;;;;5052207;28;20358;-61
2023/07/05 08:59:57;;;;;;;0.13;0.13;;;12.40;99.90;;;;;;5051971;28;20401;-62
2023/07/05 09:02:23;;;;;;;0.68;0.68;;;11.80;99.90;;;;;;5051928;28;20057;-64
2023/07/05 09:04:49;;;;;;;0.20;0.20;;;13.00;99.90;;;;;;5051787;28;20148;-61
2023/07/05 09:07:15;;;;;;;;;;;12.10;99.90;;;;;;5052487;28;20056;-60
2023/07/05 09:09:50;;;;;;;0.20;0.20;;;11.70;99.90;;;;;;5034002;28;19928;-63
2023/07/05 09:12:22;;;;;;;0.20;0.20;;;12.90;99.90;;;;;;5051895;28;20057;-61
2023/07/05 09:14:57;;;;;;;0.20;0.20;;;11.90;99.90;;;;;;5051777;28;20045;-59
2023/07/05 09:17:47;;;;;;;0.30;0.30;;;11.50;99.90;;;;;;5051889;28;20064;-60
2023/07/05 09:20:30;;;;;;;0.20;0.20;;;11.70;99.90;;;;;;5051835;28;20079;-60
2023/07/05 09:23:00;;;;;;;0.40;0.40;;;11.50;99.90;;;;;;5051686;28;20099;-60
2023/07/05 09:25:29;;;;;;;5.07;1.05;;;12.80;99.90;;;;;;5051485;28;20052;-60
2023/07/05 09:28:18;;;;;;;0.20;0.20;;;11.30;99.90;;;;;;5052023;28;20119;-60
2023/07/05 09:30:44;;;;;;;1.13;0.68;;;11.70;99.90;;;;;;5046787;28;20095;-61
2023/07/05 09:33:13;;;;;;;;;;;13.10;99.90;;;;;;5030222;28;20574;-59
2023/07/05 09:35:44;;;;;;;0.30;0.30;;;12.80;99.90;;;;;;5031251;28;19921;-60
2023/07/05 09:38:30;;;;;;;0.35;0.35;;;12.80;99.90;;;;;;5031357;28;20506;-62
2023/07/05 09:41:06;;;;;;;0.20;0.20;;;12.40;99.90;;;;;;5030805;28;20128;-59
2023/07/05 09:43:34;;;;;;;0.20;0.20;;;14.20;99.90;;;;;;5031390;28;20049;-61
2023/07/05 09:46:03;;;;;;;1.08;0.95;;;12.60;99.90;;;;;;5031263;28;20379;-61
2023/07/05 09:48:31;;;;;;;0.20;0.20;;;12.90;99.90;;;;;;5031147;28;20045;-61
2023/07/05 09:51:03;;;;;;;0.15;0.15;;;14.40;99.90;;;;;;5031348;28;20096;-62
2023/07/05 09:53:47;;;;;;;0.20;0.20;;;13.30;99.90;;;;;;5031403;28;20135;-60
2023/07/05 09:56:26;;;;;;;0.20;0.20;;;14.00;99.90;;;;;;5031211;28;20045;-61
2023/07/05 09:59:05;;;;;;;0.52;0.52;;;11.80;99.90;;;;;;5031026;28;20055;-65
2023/07/05 10:01:31;;;;;;;0.88;0.30;;;11.30;99.90;;;;;;5031375;28;20057;-61
2023/07/05 10:04:02;;;;;;;1.27;1.27;;;12.50;99.90;;;;;;5031049;28;20037;-61
2023/07/05 10:06:29;;;;;;;0.15;0.15;;;12.00;99.90;;;;;;5031048;28;20481;-61
2023/07/05 10:09:00;;;;;;;0.17;0.17;;;14.30;99.90;;;;;;5030993;28;20045;-62
2023/07/05 10:11:28;;;;;;;0.20;0.20;;;13.30;99.90;;;;;;5030940;28;20045;-62
2023/07/05 10:14:07;;;;;;;0.10;0.10;;;15.40;99.90;;;;;;5031003;28;20045;-61
2023/07/05 10:16:54;;;;;;;0.20;0.20;;;14.60;99.90;;;;;;5013252;28;20417;-63
2023/07/05 10:19:20;;;;;;;0.55;0.35;;;12.70;99.90;;;;;;5031004;28;20041;-62
2023/07/05 10:21:53;;;;;;;0.17;0.17;;;14.30;99.90;;;;;;5013210;28;20088;-62
2023/07/05 10:24:20;;;;;;;0.30;0.30;;;13.10;99.90;;;;;;5013161;28;20048;-62
2023/07/05 10:27:08;;;;;;;0.50;0.50;;;14.70;99.90;;;;;;5030867;28;20045;-64
2023/07/05 10:29:35;;;;;;;0.20;0.20;;;13.80;99.90;;;;;;5030845;28;20037;-62
2023/07/05 10:32:01;;;;;;;1.55;0.82;;;14.40;99.90;;;;;;5030756;28;20056;-64
2023/07/05 10:34:27;;;;;;;0.20;0.20;;;12.70;99.90;;;;;;5030777;28;20046;-62
2023/07/05 10:36:54;;;;;;;0.40;0.40;;;14.80;99.90;;;;;;5031032;28;20053;-64
2023/07/05 10:39:23;;;;;;;0.20;0.20;;;12.90;99.90;;;;;;5031053;28;20484;-62
2023/07/05 10:41:57;;;;;;;0.10;0.10;;;13.60;99.90;;;;;;5030776;28;20045;-61
2023/07/05 10:44:26;;;;;;;0.13;0.13;;;12.50;99.90;;;;;;5030586;28;20038;-61
2023/07/05 10:46:54;;;;;;;0.17;0.17;;;13.20;99.90;;;;;;5030592;28;20060;-61
2023/07/05 10:49:19;;;;;;;0.20;0.20;;;13.90;99.90;;;;;;5030825;28;20117;-62
2023/07/05 10:51:50;;;;;;;0.20;0.20;;;13.10;99.90;;;;;;5030650;28;20044;-62
2023/07/05 10:54:27;;;;;;;0.20;0.20;;;13.60;99.90;;;;;;5034187;28;20111;-62
2023/07/05 10:56:54;;;;;;;0.10;0.10;;;15.00;99.90;;;;;;5034572;28;20045;-64
2023/07/05 10:59:28;;;;;;;0.25;0.25;;;15.50;99.90;;;;;;5034338;28;20136;-62
2023/07/05 11:02:21;;;;;;;0.22;0.22;;;15.80;99.90;;;;;;5034658;28;20057;-62
2023/07/05 11:04:52;;;;;;;0.20;0.20;;;15.80;99.90;;;;;;5025834;28;20458;-61
2023/07/05 11:07:19;;;;;;;0.10;0.10;;;14.20;99.90;;;;;;5034427;28;20093;-62
2023/07/05 11:09:45;;;;;;;0.20;0.20;;;14.80;99.90;;;;;;5034138;28;20404;-62
2023/07/05 11:12:25;;;;;;;0.20;0.20;;;14.70;99.90;;;;;;5034357;28;20041;-62
2023/07/05 11:14:52;;;;;;;0.17;0.17;;;15.30;99.90;;;;;;5034434;28;20142;-63
2023/07/05 11:17:35;;;;;;;0.20;0.20;;;15.50;99.90;;;;;;5034303;28;20565;-62
2023/07/05 11:20:01;;;;;;;0.20;0.20;;;16.50;99.90;;;;;;5034272;28;20054;-62
2023/07/05 11:22:39;;;;;;;0.30;0.30;;;16.40;99.90;;;;;;5016586;28;20072;-63
2023/07/05 11:25:09;;;;;;;0.17;0.17;;;16.60;99.90;;;;;;5034066;28;20050;-63
2023/07/05 11:27:35;;;;;;;0.30;0.30;;;16.70;99.90;;;;;;5034029;28;20149;-63
2023/07/05 11:30:01;;;;;;;0.20;0.20;;;17.10;99.90;;;;;;5033947;28;20083;-64
2023/07/05 11:32:28;;;;;;;;;;;16.50;99.90;;;;;;5034254;28;20107;-64
2023/07/05 11:34:55;;;;;;;0.38;0.38;;;16.60;99.90;;;;;;5033994;28;20000;-64
2023/07/05 11:37:21;;;;;;;1.02;0.47;;;16.20;99.90;;;;;;5033892;28;20064;-65
2023/07/05 11:39:51;;;;;;;;;;;16.30;99.90;;;;;;5034296;28;20045;-65
2023/07/05 11:42:24;;;;;;;0.20;0.20;;;16.50;99.90;;;;;;5033732;28;19925;-65
2023/07/05 11:45:13;;;;;;;0.10;0.10;;;17.20;99.90;;;;;;5033629;28;20132;-66
2023/07/05 11:47:38;;;;;;;0.20;0.20;;;16.40;99.90;;;;;;5033425;28;20579;-66
2023/07/05 11:50:07;;;;;;;;;;;16.60;99.90;;;;;;5033997;28;20088;-65
2023/07/05 11:52:47;;;;;;;0.10;0.10;;;16.30;99.90;;;;;;5033530;28;19931;-64
2023/07/05 11:55:27;;;;;;;0.10;0.10;;;16.30;99.90;;;;;;5033423;28;20041;-65
2023/07/05 11:58:16;;;;;;;0.45;0.45;;;16.60;99.90;;;;;;5033560;28;20045;-65
2023/07/05 12:00:51;;;;;;;0.10;0.10;;;16.30;99.90;;;;;;5033433;28;20132;-64
2023/07/05 12:03:21;;;;;;;0.10;0.10;;;16.30;99.90;;;;;;5033286;28;20053;-65
2023/07/05 12:05:54;;;;;;;0.17;0.17;;;16.10;99.90;;;;;;5032323;28;20057;-65
2023/07/05 12:08:27;;;;;;;0.10;0.10;;;16.20;99.90;;;;;;5033344;28;20061;-65
2023/07/05 12:11:00;;;;;;;0.10;0.10;;;16.40;99.90;;;;;;5033323;28;20052;-64
2023/07/05 12:13:34;;;;;;;0.10;0.10;;;18.40;99.90;;;;;;5033219;28;20053;-65
2023/07/05 12:16:13;;;;;;;1.08;0.95;;;15.90;99.90;;;;;;5033063;28;20107;-64
2023/07/05 12:18:40;;;;;;;3.35;1.40;;;16.20;99.90;;;;;;5033104;28;20481;-65
2023/07/05 12:21:06;;;;;;;0.20;0.20;;;15.10;99.90;;;;;;5033083;28;20133;-64
2023/07/05 12:23:34;;;;;;;;;;;15.00;99.90;;;;;;5033594;28;20148;-64
2023/07/05 12:26:04;;;;;;;1.33;0.32;;;15.70;99.90;;;;;;5032723;28;20464;-66
2023/07/05 12:28:33;;;;;;;1.27;0.75;;;15.90;99.90;;;;;;5032845;28;20045;-65
2023/07/05 12:31:02;;;;;;;0.30;0.30;;;16.00;99.90;;;;;;5032466;28;20417;-64
2023/07/05 12:33:32;;;;;;;10.80;1.25;;;16.10;99.90;;;;;;5032890;28;20060;-65
2023/07/05 12:36:03;;;;;;;0.98;0.98;;;15.90;99.90;;;;;;5032697;28;20049;-62
2023/07/05 12:38:29;;;;;;;0.30;0.30;;;14.10;99.90;;;;;;5032467;28;20106;-63
2023/07/05 12:40:55;;;;;;;2.00;1.83;;;14.90;99.90;;;;;;5032281;28;20049;-68
2023/07/05 12:43:25;;;;;;;;;;;13.90;99.90;;;;;;5032628;28;20056;-64
2023/07/05 12:45:51;;;;;;;0.85;0.75;;;15.20;99.90;;;;;;5032370;28;20216;-63
2023/07/05 12:48:24;;;;;;;0.47;0.47;;;13.30;99.90;;;;;;5032284;28;20515;-63
2023/07/05 12:51:06;;;;;;;1.08;0.52;;;13.20;99.90;;;;;;5032273;28;20057;-64
2023/07/05 12:53:33;;;;;;;2.75;0.63;;;13.40;99.90;;;;;;5032022;28;20054;-64
2023/07/05 12:56:09;;;;;;;0.30;0.30;;;13.90;99.90;;;;;;5031924;28;20046;-63
2023/07/05 12:58:35;;;;;;;0.85;0.85;;;13.10;99.90;;;;;;5032118;28;20056;-65
2023/07/05 13:01:02;;;;;;;0.30;0.30;;;14.90;99.90;;;;;;5031954;28;20075;-62
2023/07/05 13:03:31;;;;;;;0.55;0.55;;;13.80;99.90;;;;;;5032108;28;20060;-62
2023/07/05 13:05:58;;;;;;;1.50;0.40;;;13.50;99.90;;;;;;5031832;28;20057;-63
2023/07/05 13:08:28;;;;;;;0.40;0.40;;;14.00;99.90;;;;;;5034164;28;20053;-62
2023/07/05 13:10:54;;;;;;;0.50;0.50;;;13.80;99.90;;;;;;5052653;28;20507;-62